Terminal Aerodrome Forecast
Issued by NWS

Home | Current Version | Previous Version | Text Only | Print | Product List | Glossary On
Versions: 1 2 3 4 5 6 7 8 9 10 11 12 13 14 15 16 17 18 19 20 21 22 23 24 25 26 27 28 29 30 31 32 33 34 35 36 37 38 39
000
FTUS41 KBOX 272320
TAFACK
TAF
KACK 272320Z 2800/2824 19007KT 4SM BR OVC005
     FM280200 19005KT 1SM BR OVC002
     FM280400 19005KT 1/4SM FG OVC002
     FM281000 20010KT 3/4SM BR VCSH OVC004
     FM281600 21012KT 2SM BR VCSH OVC010
     FM282000 23013KT P6SM BKN200=

USA.gov is the U.S. government's official web portal to all federal, state and local government web resources and services.